createdAt,value
2017-12-30T00:00:24.042Z,0.63
2017-12-30T00:01:23.959Z,0.62
2017-12-30T00:02:23.872Z,0.55
2017-12-30T00:03:23.784Z,0.56
2017-12-30T00:04:23.696Z,0.62
2017-12-30T00:05:23.608Z,0.59
2017-12-30T00:06:23.525Z,0.58
2017-12-30T00:07:23.438Z,0.60
2017-12-30T00:08:23.345Z,0.62
2017-12-30T00:09:23.248Z,0.62
2017-12-30T00:10:23.174Z,0.62
2017-12-30T00:11:23.085Z,0.60
2017-12-30T00:12:23.004Z,0.58
2017-12-30T00:13:22.913Z,0.59
2017-12-30T00:14:22.826Z,0.62
2017-12-30T00:15:22.738Z,0.50
2017-12-30T00:16:22.653Z,0.55
2017-12-30T00:17:22.564Z,0.49
2017-12-30T00:18:22.477Z,0.56
2017-12-30T00:19:22.392Z,0.55
2017-12-30T00:20:22.301Z,0.56
2017-12-30T00:21:22.216Z,0.55
2017-12-30T00:22:22.130Z,0.58
2017-12-30T00:23:22.039Z,0.62
2017-12-30T00:24:21.954Z,0.62
2017-12-30T00:25:21.858Z,0.58
2017-12-30T00:26:21.766Z,0.58
2017-12-30T00:27:21.692Z,0.62
2017-12-30T00:28:21.605Z,0.52
2017-12-30T00:29:21.506Z,0.44
2017-12-30T00:30:21.430Z,0.50
2017-12-30T00:31:21.332Z,0.62
2017-12-30T00:32:21.247Z,0.55
2017-12-30T00:33:21.158Z,0.60
2017-12-30T00:34:21.088Z,0.62
2017-12-30T00:35:20.995Z,0.55
2017-12-30T00:36:20.908Z,0.65
2017-12-30T00:37:20.821Z,0.60
2017-12-30T00:38:20.737Z,0.60
2017-12-30T00:39:20.649Z,0.60
2017-12-30T00:40:20.561Z,0.63
2017-12-30T00:41:20.475Z,0.60
2017-12-30T00:42:20.387Z,0.60
2017-12-30T00:43:20.298Z,0.49
2017-12-30T00:44:20.213Z,0.55
2017-12-30T00:45:20.112Z,0.65
2017-12-30T00:46:20.024Z,0.63
2017-12-30T00:47:19.939Z,0.68
2017-12-30T00:48:19.851Z,0.60
2017-12-30T00:49:19.778Z,0.63
2017-12-30T00:50:19.677Z,0.59
2017-12-30T00:51:19.594Z,0.59
2017-12-30T00:52:19.509Z,0.66
2017-12-30T00:53:19.416Z,0.63
2017-12-30T00:54:19.332Z,0.62
2017-12-30T00:55:19.252Z,0.60
2017-12-30T00:56:19.163Z,0.59
2017-12-30T00:57:19.078Z,0.65
2017-12-30T00:58:18.989Z,0.62
2017-12-30T00:59:18.892Z,0.68
2017-12-30T01:00:18.818Z,0.66
2017-12-30T01:01:18.719Z,0.69
2017-12-30T01:02:18.632Z,0.66
2017-12-30T01:03:18.544Z,0.66
2017-12-30T01:04:18.460Z,0.69
2017-12-30T01:05:18.380Z,0.68
2017-12-30T01:06:18.296Z,0.63
2017-12-30T01:07:18.196Z,0.62
2017-12-30T01:08:18.111Z,0.68
2017-12-30T01:09:18.023Z,0.68
2017-12-30T01:10:17.936Z,0.66
2017-12-30T01:11:17.851Z,0.66
2017-12-30T01:12:17.843Z,0.78
2017-12-30T01:13:17.761Z,0.78
2017-12-30T01:14:17.588Z,0.74
2017-12-30T01:15:17.502Z,0.80
2017-12-30T01:16:17.414Z,0.86
2017-12-30T01:17:17.326Z,0.84
2017-12-30T01:18:17.241Z,0.83
2017-12-30T01:19:17.154Z,0.86
2017-12-30T01:20:17.068Z,0.80
2017-12-30T01:21:16.979Z,0.83
2017-12-30T01:22:16.893Z,0.86
2017-12-30T01:23:16.804Z,0.83
2017-12-30T01:24:16.717Z,0.86
2017-12-30T01:25:16.635Z,0.83
2017-12-30T01:26:16.545Z,0.84
2017-12-30T01:27:16.457Z,0.81
2017-12-30T01:28:16.371Z,0.88
2017-12-30T01:29:16.284Z,0.76
2017-12-30T01:30:16.199Z,0.70
2017-12-30T01:31:16.110Z,0.66
2017-12-30T01:32:16.023Z,0.69
2017-12-30T01:33:15.935Z,0.73
2017-12-30T01:34:15.850Z,0.84
2017-12-30T01:35:15.763Z,0.86
2017-12-30T01:36:15.676Z,0.63
2017-12-30T01:37:15.590Z,0.70
2017-12-30T01:38:15.502Z,0.68
2017-12-30T01:39:15.414Z,0.70
2017-12-30T01:40:15.330Z,0.66
2017-12-30T01:41:15.243Z,0.66
2017-12-30T01:42:15.153Z,0.63
2017-12-30T01:43:15.067Z,0.65
2017-12-30T01:44:14.980Z,0.80
2017-12-30T01:45:14.894Z,0.78
2017-12-30T01:46:14.806Z,0.81
2017-12-30T01:47:14.718Z,0.83
2017-12-30T01:48:14.633Z,0.76
2017-12-30T01:49:14.545Z,0.81
2017-12-30T01:50:14.461Z,0.87
2017-12-30T01:51:14.373Z,0.88
2017-12-30T01:52:14.285Z,0.99
2017-12-30T01:53:14.229Z,0.99
2017-12-30T01:54:14.114Z,0.98
2017-12-30T01:55:14.029Z,0.96
2017-12-30T01:56:13.939Z,1.02
2017-12-30T01:57:13.850Z,0.96
2017-12-30T01:58:13.765Z,0.92
2017-12-30T01:59:13.676Z,0.98
2017-12-30T02:00:13.590Z,0.98
2017-12-30T02:01:13.501Z,0.92
2017-12-30T02:02:13.416Z,0.95
2017-12-30T02:03:13.329Z,0.95
2017-12-30T02:04:13.243Z,0.83
2017-12-30T02:05:13.155Z,0.81
2017-12-30T02:06:13.070Z,0.86
2017-12-30T02:07:12.982Z,0.86
2017-12-30T02:08:12.896Z,0.80
2017-12-30T02:09:12.808Z,0.77
2017-12-30T02:10:12.724Z,0.78
2017-12-30T02:11:12.642Z,0.84
2017-12-30T02:12:12.554Z,0.84
2017-12-30T02:13:12.461Z,0.91
2017-12-30T02:14:12.374Z,0.83
2017-12-30T02:15:12.288Z,0.87
2017-12-30T02:16:12.200Z,0.83
2017-12-30T02:17:12.112Z,0.86
2017-12-30T02:18:12.027Z,0.81
2017-12-30T02:19:11.941Z,0.88
2017-12-30T02:20:11.854Z,0.92
2017-12-30T02:21:11.765Z,0.94
2017-12-30T02:22:11.680Z,0.98
2017-12-30T02:23:11.593Z,0.98
2017-12-30T02:24:11.508Z,0.95
2017-12-30T02:25:11.419Z,0.95
2017-12-30T02:26:11.334Z,1.02
2017-12-30T02:27:11.246Z,1.02
2017-12-30T02:28:11.162Z,1.10
2017-12-30T02:29:11.071Z,1.10
2017-12-30T02:30:10.990Z,1.14
2017-12-30T02:31:10.900Z,1.10
2017-12-30T02:32:10.813Z,1.13
2017-12-30T02:33:10.725Z,1.13
2017-12-30T02:34:10.638Z,1.19
2017-12-30T02:35:10.553Z,1.13
2017-12-30T02:36:10.465Z,1.16
2017-12-30T02:37:10.378Z,1.19
2017-12-30T02:38:10.293Z,1.22
2017-12-30T02:39:10.207Z,1.28
2017-12-30T02:40:10.118Z,1.22
2017-12-30T02:41:10.040Z,1.22
2017-12-30T02:42:09.946Z,1.23
2017-12-30T02:43:09.861Z,1.22
2017-12-30T02:44:09.775Z,1.24
2017-12-30T02:45:09.685Z,1.31
2017-12-30T02:46:09.600Z,1.28
2017-12-30T02:47:09.567Z,1.35
2017-12-30T02:48:09.428Z,1.31
2017-12-30T02:49:09.340Z,1.26
2017-12-30T02:50:09.256Z,1.19
2017-12-30T02:51:09.169Z,1.24
2017-12-30T02:52:09.080Z,1.26
2017-12-30T02:53:08.996Z,1.30
2017-12-30T02:54:08.907Z,1.26
2017-12-30T02:55:08.821Z,1.31
2017-12-30T02:56:08.737Z,1.24
2017-12-30T02:57:08.648Z,1.24
2017-12-30T02:58:08.563Z,1.24
2017-12-30T02:59:08.474Z,1.26
2017-12-30T03:00:08.388Z,1.17
2017-12-30T03:01:08.301Z,1.30
2017-12-30T03:02:08.214Z,1.23
2017-12-30T03:03:08.129Z,1.24
2017-12-30T03:04:08.040Z,1.24
2017-12-30T03:05:07.952Z,1.22
2017-12-30T03:06:07.864Z,1.22
2017-12-30T03:07:07.782Z,1.23
2017-12-30T03:08:07.694Z,1.23
2017-12-30T03:09:07.606Z,1.16
2017-12-30T03:10:07.519Z,1.22
2017-12-30T03:11:07.433Z,1.28
2017-12-30T03:12:07.348Z,1.19
2017-12-30T03:13:07.260Z,1.26
2017-12-30T03:14:07.175Z,1.26
2017-12-30T03:15:07.087Z,1.26
2017-12-30T03:16:07.001Z,1.34
2017-12-30T03:17:06.912Z,1.22
2017-12-30T03:18:06.827Z,1.26
2017-12-30T03:19:06.740Z,1.22
2017-12-30T03:20:06.656Z,1.24
2017-12-30T03:21:06.568Z,1.35
2017-12-30T03:22:06.481Z,1.31
2017-12-30T03:23:06.394Z,1.38
2017-12-30T03:24:06.308Z,1.35
2017-12-30T03:25:06.221Z,1.37
2017-12-30T03:26:06.135Z,1.38
2017-12-30T03:27:06.048Z,1.40
2017-12-30T03:28:05.966Z,1.37
2017-12-30T03:29:05.875Z,1.37
2017-12-30T03:30:05.793Z,1.35
2017-12-30T03:31:05.705Z,1.40
2017-12-30T03:32:05.624Z,1.44
2017-12-30T03:33:05.530Z,1.52
2017-12-30T03:34:05.443Z,1.45
2017-12-30T03:35:05.358Z,1.49
2017-12-30T03:36:05.273Z,1.48
2017-12-30T03:37:05.185Z,1.49
2017-12-30T03:38:05.098Z,1.52
2017-12-30T03:39:05.019Z,1.49
2017-12-30T03:40:04.928Z,1.52
2017-12-30T03:41:04.839Z,1.58
2017-12-30T03:42:04.753Z,1.62
2017-12-30T03:43:04.667Z,1.52
2017-12-30T03:44:04.581Z,1.56
2017-12-30T03:45:04.494Z,1.59
2017-12-30T03:46:04.406Z,1.58
2017-12-30T03:47:04.325Z,1.55
2017-12-30T03:48:04.233Z,1.58
2017-12-30T03:49:04.147Z,1.50
2017-12-30T03:50:04.061Z,1.52
2017-12-30T03:51:03.988Z,1.55
2017-12-30T03:52:03.892Z,1.50
2017-12-30T03:53:03.808Z,1.58
2017-12-30T03:54:03.719Z,1.60
2017-12-30T03:55:03.631Z,1.53
2017-12-30T03:56:03.543Z,1.62
2017-12-30T03:57:03.458Z,1.59
2017-12-30T03:58:03.372Z,1.56
2017-12-30T03:59:03.285Z,1.60
2017-12-30T04:00:03.200Z,1.66
2017-12-30T04:01:03.112Z,1.59
2017-12-30T04:02:03.026Z,1.67
2017-12-30T04:03:02.939Z,1.67
2017-12-30T04:04:02.854Z,1.68
2017-12-30T04:05:02.767Z,1.60
2017-12-30T04:06:02.695Z,1.67
2017-12-30T04:07:02.644Z,1.67
2017-12-30T04:08:02.512Z,1.73
2017-12-30T04:09:02.422Z,1.71
2017-12-30T04:10:02.338Z,1.67
2017-12-30T04:11:02.252Z,1.66
2017-12-30T04:12:02.176Z,1.68
2017-12-30T04:13:02.080Z,1.81
2017-12-30T04:14:01.992Z,1.76
2017-12-30T04:15:01.926Z,1.73
2017-12-30T04:16:01.824Z,1.77
2017-12-30T04:17:01.735Z,1.78
2017-12-30T04:18:01.652Z,1.76
2017-12-30T04:19:01.574Z,1.78
2017-12-30T04:20:01.477Z,1.76
2017-12-30T04:21:01.389Z,1.81
2017-12-30T04:22:01.303Z,1.77
2017-12-30T04:23:01.218Z,1.76
2017-12-30T04:24:01.135Z,1.88
2017-12-30T04:25:01.046Z,1.78
2017-12-30T04:26:00.960Z,1.76
2017-12-30T04:27:00.874Z,1.85
2017-12-30T04:28:00.789Z,1.84
2017-12-30T04:29:00.704Z,1.85
2017-12-30T04:30:00.617Z,1.88
2017-12-30T04:31:00.534Z,1.84
2017-12-30T04:32:00.443Z,1.81
2017-12-30T04:33:00.359Z,1.85
2017-12-30T04:34:00.274Z,1.84
2017-12-30T04:35:00.186Z,1.85
2017-12-30T04:36:00.102Z,1.81
2017-12-30T04:37:00.019Z,1.84
2017-12-30T04:37:59.927Z,1.88
2017-12-30T04:38:59.842Z,1.84
2017-12-30T04:39:59.758Z,1.85
2017-12-30T04:40:59.672Z,1.78
2017-12-30T04:41:59.585Z,1.81
2017-12-30T04:42:59.497Z,1.73
2017-12-30T04:43:59.413Z,1.74
2017-12-30T04:44:59.327Z,1.71
2017-12-30T04:45:59.239Z,1.74
2017-12-30T04:46:59.152Z,1.74
2017-12-30T04:47:59.066Z,1.76
2017-12-30T04:48:58.981Z,1.71
2017-12-30T04:49:58.894Z,1.77
2017-12-30T04:50:58.809Z,1.76
2017-12-30T04:51:58.721Z,1.70
2017-12-30T04:52:58.634Z,1.63
2017-12-30T04:53:58.549Z,1.60
2017-12-30T04:54:58.462Z,1.56
2017-12-30T04:55:58.377Z,1.49
2017-12-30T04:56:58.292Z,1.50
2017-12-30T04:57:58.204Z,1.50
2017-12-30T04:58:58.120Z,1.49
2017-12-30T04:59:58.040Z,1.56
2017-12-30T05:00:57.946Z,1.53
2017-12-30T05:01:57.861Z,1.53
2017-12-30T05:02:57.773Z,1.52
2017-12-30T05:03:57.688Z,1.60
2017-12-30T05:04:57.600Z,1.63
2017-12-30T05:05:57.516Z,1.60
2017-12-30T05:06:57.431Z,1.62
2017-12-30T05:07:57.342Z,1.62
2017-12-30T05:08:57.259Z,1.66
2017-12-30T05:09:57.171Z,1.71
2017-12-30T05:10:57.083Z,1.71
2017-12-30T05:11:56.998Z,1.71
2017-12-30T05:12:56.912Z,1.76
2017-12-30T05:13:56.823Z,1.71
2017-12-30T05:14:56.738Z,1.67
2017-12-30T05:15:56.656Z,1.68
2017-12-30T05:16:56.566Z,1.68
2017-12-30T05:17:56.480Z,1.73
2017-12-30T05:18:56.394Z,1.74
2017-12-30T05:19:56.306Z,1.66
2017-12-30T05:20:56.222Z,1.67
2017-12-30T05:21:56.135Z,1.68
2017-12-30T05:22:56.050Z,1.73
2017-12-30T05:23:55.964Z,1.67
2017-12-30T05:24:55.875Z,1.67
2017-12-30T05:25:55.795Z,1.68
2017-12-30T05:26:55.702Z,1.67
2017-12-30T05:27:55.622Z,1.73
2017-12-30T05:28:55.530Z,1.67
2017-12-30T05:29:55.450Z,1.68
2017-12-30T05:30:55.361Z,1.68
2017-12-30T05:31:55.273Z,1.68
2017-12-30T05:32:55.191Z,1.68
2017-12-30T05:33:55.102Z,1.68
2017-12-30T05:34:55.016Z,1.71
2017-12-30T05:35:54.929Z,1.71
2017-12-30T05:36:54.842Z,1.71
2017-12-30T05:37:54.755Z,1.68
2017-12-30T05:38:54.670Z,1.81
2017-12-30T05:39:54.588Z,1.78
2017-12-30T05:40:54.496Z,1.81
2017-12-30T05:41:54.442Z,1.74
2017-12-30T05:42:54.324Z,1.71
2017-12-30T05:43:54.243Z,1.80
2017-12-30T05:44:54.152Z,1.74
2017-12-30T05:45:54.069Z,1.80
2017-12-30T05:46:53.979Z,1.78
2017-12-30T05:47:53.898Z,1.78
2017-12-30T05:48:53.808Z,1.78
2017-12-30T05:49:53.722Z,1.77
2017-12-30T05:50:53.635Z,1.80
2017-12-30T05:51:53.548Z,1.78
2017-12-30T05:52:53.462Z,1.71
2017-12-30T05:53:53.374Z,1.71
2017-12-30T05:54:53.293Z,1.71
2017-12-30T05:55:53.205Z,1.71
2017-12-30T05:56:53.119Z,1.74
2017-12-30T05:57:53.036Z,1.73
2017-12-30T05:58:52.946Z,1.67
2017-12-30T05:59:52.889Z,1.66
2017-12-30T06:00:52.773Z,1.63
2017-12-30T06:01:52.686Z,1.60
2017-12-30T06:02:52.602Z,1.62
2017-12-30T06:03:52.514Z,1.73
2017-12-30T06:04:52.427Z,1.67
2017-12-30T06:05:52.342Z,1.59
2017-12-30T06:06:52.256Z,1.62
2017-12-30T06:07:52.170Z,1.66
2017-12-30T06:08:52.083Z,1.60
2017-12-30T06:09:51.998Z,1.71
2017-12-30T06:10:51.943Z,1.70
2017-12-30T06:11:51.825Z,1.62
2017-12-30T06:12:51.740Z,1.66
2017-12-30T06:13:51.651Z,1.59
2017-12-30T06:14:51.566Z,1.67
2017-12-30T06:15:51.480Z,1.62
2017-12-30T06:16:51.393Z,1.70
2017-12-30T06:17:51.314Z,1.62
2017-12-30T06:18:51.219Z,1.63
2017-12-30T06:19:51.135Z,1.63
2017-12-30T06:20:51.048Z,1.59
2017-12-30T06:21:50.961Z,1.58
2017-12-30T06:22:50.878Z,1.62
2017-12-30T06:23:50.791Z,1.62
2017-12-30T06:24:50.701Z,1.62
2017-12-30T06:25:50.619Z,1.62
2017-12-30T06:26:50.532Z,1.63
2017-12-30T06:27:50.443Z,1.63
2017-12-30T06:28:50.356Z,1.60
2017-12-30T06:29:50.272Z,1.62
2017-12-30T06:30:50.186Z,1.60
2017-12-30T06:31:50.100Z,1.66
2017-12-30T06:32:50.013Z,1.70
2017-12-30T06:33:49.925Z,1.56
2017-12-30T06:34:49.843Z,1.62
2017-12-30T06:35:49.754Z,1.60
2017-12-30T06:36:49.669Z,1.60
2017-12-30T06:37:49.581Z,1.60
2017-12-30T06:38:49.496Z,1.52
2017-12-30T06:39:49.411Z,1.62
2017-12-30T06:40:49.321Z,1.58
2017-12-30T06:41:49.236Z,1.53
2017-12-30T06:42:49.150Z,1.55
2017-12-30T06:43:49.071Z,1.50
2017-12-30T06:44:48.976Z,1.55
2017-12-30T06:45:48.889Z,1.59
2017-12-30T06:46:48.803Z,1.56
2017-12-30T06:47:48.719Z,1.53
2017-12-30T06:48:48.631Z,1.58
2017-12-30T06:49:48.550Z,1.52
2017-12-30T06:50:48.458Z,1.50
2017-12-30T06:51:48.374Z,1.55
2017-12-30T06:52:48.284Z,1.52
2017-12-30T06:53:48.198Z,1.45
2017-12-30T06:54:48.113Z,1.62
2017-12-30T06:55:48.030Z,1.42
2017-12-30T06:56:47.940Z,1.53
2017-12-30T06:57:47.854Z,1.48
2017-12-30T06:58:47.767Z,1.42
2017-12-30T06:59:47.681Z,1.45
2017-12-30T07:00:47.593Z,1.49
2017-12-30T07:01:47.507Z,1.48
2017-12-30T07:02:47.421Z,1.45
2017-12-30T07:03:47.335Z,1.49
2017-12-30T07:04:47.251Z,1.48
2017-12-30T07:05:47.162Z,1.44
2017-12-30T07:06:47.074Z,1.45
2017-12-30T07:07:46.992Z,1.42
2017-12-30T07:08:46.900Z,1.49
2017-12-30T07:09:46.818Z,1.37
2017-12-30T07:10:46.730Z,1.35
2017-12-30T07:11:46.642Z,1.37
2017-12-30T07:12:46.556Z,1.38
2017-12-30T07:13:46.471Z,1.38
2017-12-30T07:14:46.383Z,1.38
2017-12-30T07:15:46.305Z,1.32
2017-12-30T07:16:46.213Z,1.34
2017-12-30T07:17:46.124Z,1.34
2017-12-30T07:18:46.064Z,1.34
2017-12-30T07:19:45.952Z,1.35
2017-12-30T07:20:45.863Z,1.35
2017-12-30T07:21:45.778Z,1.40
2017-12-30T07:22:45.690Z,1.38
2017-12-30T07:23:45.604Z,1.35
2017-12-30T07:24:45.516Z,1.24
2017-12-30T07:25:45.429Z,1.31
2017-12-30T07:26:45.344Z,1.24
2017-12-30T07:27:45.257Z,1.24
2017-12-30T07:28:45.169Z,1.22
2017-12-30T07:29:45.085Z,1.23
2017-12-30T07:30:44.996Z,1.31
2017-12-30T07:31:44.910Z,1.30
2017-12-30T07:32:44.825Z,1.26
2017-12-30T07:33:44.738Z,1.23
2017-12-30T07:34:44.650Z,1.22
2017-12-30T07:35:44.576Z,1.23
2017-12-30T07:36:44.476Z,1.19
2017-12-30T07:37:44.432Z,1.23
2017-12-30T07:38:44.307Z,1.26
2017-12-30T07:39:44.226Z,1.31
2017-12-30T07:40:44.131Z,1.40
2017-12-30T07:41:44.044Z,1.35
2017-12-30T07:42:43.957Z,1.37
2017-12-30T07:43:43.872Z,1.38
2017-12-30T07:44:43.832Z,1.40
2017-12-30T07:45:43.724Z,1.41
2017-12-30T07:46:43.613Z,1.41
2017-12-30T07:47:43.527Z,1.35
2017-12-30T07:48:43.440Z,1.52
2017-12-30T07:49:43.351Z,1.41
2017-12-30T07:50:43.267Z,1.42
2017-12-30T07:51:43.188Z,1.42
2017-12-30T07:52:43.093Z,1.49
2017-12-30T07:53:43.006Z,1.44
2017-12-30T07:54:42.919Z,1.53
2017-12-30T07:55:42.834Z,1.48
2017-12-30T07:56:42.746Z,1.49
2017-12-30T07:57:42.706Z,1.50
2017-12-30T07:58:42.573Z,1.48
2017-12-30T07:59:42.487Z,1.48
2017-12-30T08:00:42.403Z,1.50
2017-12-30T08:01:42.313Z,1.53
2017-12-30T08:02:42.228Z,1.53
2017-12-30T08:03:42.201Z,1.53
2017-12-30T08:04:42.115Z,1.45
2017-12-30T08:05:42.025Z,1.38
2017-12-30T08:06:41.946Z,1.34
2017-12-30T08:07:41.797Z,1.37
2017-12-30T08:08:41.709Z,1.41
2017-12-30T08:09:41.623Z,1.35
2017-12-30T08:10:41.536Z,1.31
2017-12-30T08:11:41.463Z,1.32
2017-12-30T08:12:41.364Z,1.26
2017-12-30T08:13:41.277Z,1.31
2017-12-30T08:14:41.193Z,1.26
2017-12-30T08:15:41.110Z,1.26
2017-12-30T08:16:41.022Z,1.31
2017-12-30T08:19:12.939Z,1.20
2017-12-30T08:20:12.798Z,1.26
2017-12-30T08:22:07.126Z,1.26
2017-12-30T08:23:06.938Z,1.20
2017-12-30T08:24:06.904Z,1.37
2017-12-30T08:25:06.816Z,1.35
2017-12-30T08:26:06.735Z,1.31
2017-12-30T08:27:06.646Z,1.40
2017-12-30T08:28:06.507Z,1.22
2017-12-30T08:29:06.418Z,1.37
2017-12-30T08:30:06.331Z,1.35
2017-12-30T08:31:06.264Z,1.37
2017-12-30T08:32:06.158Z,1.32
2017-12-30T08:33:06.070Z,1.40
2017-12-30T08:34:05.985Z,1.40
2017-12-30T08:35:05.898Z,1.34
2017-12-30T08:36:05.812Z,1.35
2017-12-30T08:37:05.727Z,1.35
2017-12-30T08:38:05.640Z,1.23
2017-12-30T08:39:05.554Z,1.26
2017-12-30T08:40:05.468Z,1.23
2017-12-30T08:41:05.380Z,1.28
2017-12-30T08:42:05.323Z,1.40
2017-12-30T08:43:05.207Z,1.42
2017-12-30T08:44:05.124Z,1.34
2017-12-30T08:45:05.034Z,1.40
2017-12-30T08:46:04.949Z,1.32
2017-12-30T08:47:04.861Z,1.34
2017-12-30T08:48:04.774Z,1.26
2017-12-30T08:49:04.688Z,1.23
2017-12-30T08:50:04.603Z,1.23
2017-12-30T08:51:04.516Z,1.19
2017-12-30T08:52:04.429Z,1.19
2017-12-30T08:53:04.342Z,1.26
2017-12-30T08:54:04.258Z,1.23
2017-12-30T08:55:04.171Z,1.24
2017-12-30T08:56:04.086Z,1.31
2017-12-30T08:57:03.998Z,1.32
2017-12-30T08:58:03.914Z,1.32
2017-12-30T08:59:03.844Z,1.35
2017-12-30T09:00:03.739Z,1.23
2017-12-30T09:01:03.654Z,1.30
2017-12-30T09:02:03.565Z,1.23
2017-12-30T09:03:03.480Z,1.26
2017-12-30T09:04:03.392Z,1.31
2017-12-30T09:05:03.354Z,1.40
2017-12-30T09:06:03.219Z,1.34
2017-12-30T09:07:03.135Z,1.26
2017-12-30T09:08:03.047Z,1.34
2017-12-30T09:09:02.958Z,1.26
2017-12-30T09:10:02.875Z,1.24
2017-12-30T09:11:02.788Z,1.35
2017-12-30T09:12:02.699Z,1.40
2017-12-30T09:13:02.614Z,1.38
2017-12-30T09:14:02.527Z,1.35
2017-12-30T09:15:02.441Z,1.34
2017-12-30T09:16:02.353Z,1.40
2017-12-30T09:17:02.267Z,1.44
2017-12-30T09:18:02.181Z,1.35
2017-12-30T09:19:02.094Z,1.40
2017-12-30T09:20:02.008Z,1.48
2017-12-30T09:21:01.924Z,1.44
2017-12-30T09:22:01.835Z,1.53
2017-12-30T09:23:01.751Z,1.50
2017-12-30T09:24:01.662Z,1.50
2017-12-30T09:25:01.576Z,1.50
2017-12-30T09:26:01.490Z,1.67
2017-12-30T09:27:01.403Z,1.45
2017-12-30T09:28:01.316Z,1.50
2017-12-30T09:29:01.248Z,1.55
2017-12-30T09:30:01.145Z,1.55
2017-12-30T09:31:01.063Z,1.62
2017-12-30T09:32:00.970Z,1.66
2017-12-30T09:33:00.885Z,1.66
2017-12-30T09:34:00.800Z,1.68
2017-12-30T09:35:00.716Z,1.68
2017-12-30T09:36:00.708Z,1.67
2017-12-30T09:37:00.540Z,1.73
2017-12-30T09:38:00.455Z,1.68
2017-12-30T09:39:00.371Z,1.68
2017-12-30T09:40:00.288Z,1.67
2017-12-30T09:41:00.195Z,1.68
2017-12-30T09:42:00.110Z,1.68
2017-12-30T09:43:00.728Z,1.66
2017-12-30T09:43:59.938Z,1.63
2017-12-30T09:44:59.852Z,1.68
2017-12-30T09:45:59.765Z,1.67
2017-12-30T09:46:59.686Z,1.70
2017-12-30T09:47:59.595Z,1.66
2017-12-30T09:48:59.517Z,1.60
2017-12-30T09:49:59.421Z,1.68
2017-12-30T09:50:59.343Z,1.78
2017-12-30T09:51:59.251Z,1.74
2017-12-30T09:52:59.163Z,1.78
2017-12-30T09:53:59.079Z,1.88
2017-12-30T09:54:58.995Z,1.87
2017-12-30T09:55:58.916Z,1.87
2017-12-30T09:56:59.469Z,1.81
2017-12-30T09:57:58.732Z,1.80
2017-12-30T09:58:58.662Z,1.88
2017-12-30T09:59:58.560Z,1.89
2017-12-30T10:00:58.486Z,1.92
2017-12-30T10:01:58.422Z,1.99
2017-12-30T10:02:58.302Z,1.91
2017-12-30T10:03:58.217Z,1.99
2017-12-30T10:04:58.133Z,1.88
2017-12-30T10:05:58.046Z,1.91
2017-12-30T10:06:57.960Z,2.10
2017-12-30T10:07:57.873Z,2.08
2017-12-30T10:08:57.788Z,2.14
2017-12-30T10:09:57.703Z,2.06
2017-12-30T10:10:57.617Z,2.08
2017-12-30T10:11:57.531Z,2.11
2017-12-30T10:12:57.445Z,2.14
2017-12-30T10:13:57.360Z,2.15
2017-12-30T10:14:57.272Z,2.22
2017-12-30T10:15:57.186Z,2.28
2017-12-30T10:16:57.168Z,2.29
2017-12-30T10:17:57.015Z,2.28
2017-12-30T10:18:56.929Z,2.28
2017-12-30T10:19:56.846Z,2.36
2017-12-30T10:20:56.759Z,2.36
2017-12-30T10:21:56.674Z,2.43
2017-12-30T10:22:56.587Z,2.49
2017-12-30T10:23:56.505Z,2.35
2017-12-30T10:24:56.421Z,2.46
2017-12-30T10:25:56.330Z,2.46
2017-12-30T10:26:56.247Z,2.56
2017-12-30T10:27:56.165Z,2.56
2017-12-30T10:28:56.077Z,2.64
2017-12-30T10:29:55.993Z,2.69
2017-12-30T10:30:55.903Z,2.80
2017-12-30T10:31:55.819Z,2.77
2017-12-30T10:32:55.760Z,2.83
2017-12-30T10:33:55.649Z,2.83
2017-12-30T10:34:55.574Z,2.93
2017-12-30T10:35:55.480Z,2.83
2017-12-30T10:36:55.393Z,2.90
2017-12-30T10:37:55.307Z,2.89
2017-12-30T10:38:55.224Z,2.90
2017-12-30T10:39:55.141Z,2.85
2017-12-30T10:40:55.052Z,2.92
2017-12-30T10:41:54.967Z,2.92
2017-12-30T10:42:54.885Z,2.95
2017-12-30T10:43:54.796Z,2.92
2017-12-30T10:44:54.712Z,2.92
2017-12-30T10:45:54.631Z,2.93
2017-12-30T10:46:54.545Z,3.01
2017-12-30T10:47:54.457Z,3.04
2017-12-30T10:48:54.374Z,3.05
2017-12-30T10:49:54.288Z,2.98
2017-12-30T10:50:54.203Z,2.93
2017-12-30T10:51:54.119Z,2.92
2017-12-30T10:52:54.034Z,2.90
2017-12-30T10:53:53.949Z,2.97
2017-12-30T10:54:53.864Z,2.92
2017-12-30T10:55:53.787Z,2.87
2017-12-30T10:56:53.697Z,2.89
2017-12-30T10:57:53.611Z,2.87
2017-12-30T10:58:53.525Z,2.86
2017-12-30T10:59:53.451Z,2.92
2017-12-30T11:00:53.354Z,2.83
2017-12-30T11:01:53.272Z,2.83
2017-12-30T11:02:53.186Z,2.92
2017-12-30T11:03:53.099Z,2.87
2017-12-30T11:04:53.015Z,2.90
2017-12-30T11:05:52.931Z,2.93
2017-12-30T11:06:52.846Z,2.89
2017-12-30T11:07:52.762Z,2.86
2017-12-30T11:08:52.676Z,2.93
2017-12-30T11:09:52.591Z,2.92
2017-12-30T11:10:52.507Z,2.97
2017-12-30T11:11:52.421Z,2.98
2017-12-30T11:12:52.371Z,2.98
2017-12-30T11:13:52.251Z,2.92
2017-12-30T11:14:52.203Z,2.97
2017-12-30T11:15:52.082Z,2.97
2017-12-30T11:16:51.997Z,3.01
2017-12-30T11:17:51.912Z,2.98
2017-12-30T11:18:51.829Z,3.08
2017-12-30T11:19:51.745Z,3.05
2017-12-30T11:20:51.659Z,3.04
2017-12-30T11:21:51.572Z,3.04
2017-12-30T11:22:51.487Z,3.01
2017-12-30T11:23:51.403Z,3.01
2017-12-30T11:24:51.317Z,3.01
2017-12-30T11:25:51.234Z,2.98
2017-12-30T11:26:51.148Z,3.07
2017-12-30T11:27:51.062Z,3.03
2017-12-30T11:28:50.977Z,3.05
2017-12-30T11:29:50.893Z,3.05
2017-12-30T11:30:50.807Z,2.95
2017-12-30T11:31:50.732Z,3.01
2017-12-30T11:32:50.649Z,3.01
2017-12-30T11:33:50.554Z,3.07
2017-12-30T11:34:50.473Z,3.00
2017-12-30T11:35:50.382Z,3.03
2017-12-30T11:36:50.312Z,3.07
2017-12-30T11:37:50.213Z,3.01
2017-12-30T11:38:50.128Z,3.01
2017-12-30T11:39:50.041Z,3.01
2017-12-30T11:40:49.958Z,3.05
2017-12-30T11:41:49.875Z,3.07
2017-12-30T11:42:49.814Z,3.16
2017-12-30T11:43:49.718Z,3.07
2017-12-30T11:44:49.618Z,3.13
2017-12-30T11:45:49.545Z,3.10
2017-12-30T11:46:49.459Z,3.10
2017-12-30T11:47:49.364Z,3.08
2017-12-30T11:48:49.278Z,3.16
2017-12-30T11:49:49.198Z,3.11
2017-12-30T11:50:49.108Z,3.08
2017-12-30T11:51:49.024Z,3.10
2017-12-30T11:52:48.940Z,3.11
2017-12-30T11:53:48.854Z,3.21
2017-12-30T11:54:48.770Z,3.18
2017-12-30T11:55:48.684Z,3.16
2017-12-30T11:56:48.600Z,3.16
2017-12-30T11:57:48.514Z,3.19
2017-12-30T11:58:48.447Z,3.18
2017-12-30T11:59:48.345Z,3.16
2017-12-30T12:00:48.260Z,3.21
2017-12-30T12:01:48.174Z,3.14
2017-12-30T12:02:48.090Z,3.18
2017-12-30T12:03:48.005Z,3.26
2017-12-30T12:04:47.922Z,3.13
2017-12-30T12:05:47.836Z,3.14
2017-12-30T12:06:47.752Z,3.11
2017-12-30T12:07:47.712Z,3.22
2017-12-30T12:08:47.580Z,3.22
2017-12-30T12:09:47.500Z,3.18
2017-12-30T12:10:47.411Z,3.18
2017-12-30T12:11:47.344Z,3.25
2017-12-30T12:12:47.241Z,3.25
2017-12-30T12:15:19.172Z,3.26
2017-12-30T12:16:19.037Z,3.31
2017-12-30T12:18:12.270Z,3.28
2017-12-30T12:19:12.182Z,3.29
2017-12-30T12:21:05.462Z,3.37
2017-12-30T12:22:05.328Z,3.29
2017-12-30T12:23:58.608Z,3.34
2017-12-30T12:24:58.474Z,3.31
2017-12-30T12:26:52.753Z,3.36
2017-12-30T12:27:52.618Z,3.42
2017-12-30T12:28:52.534Z,3.41
2017-12-30T12:29:52.448Z,3.37
2017-12-30T12:30:52.365Z,3.42
2017-12-30T12:31:52.280Z,3.42
2017-12-30T12:32:52.194Z,3.44
2017-12-30T12:33:52.111Z,3.47
2017-12-30T12:34:52.025Z,3.48
2017-12-30T12:35:51.942Z,3.55
2017-12-30T12:36:51.856Z,3.50
2017-12-30T12:37:51.770Z,3.47
2017-12-30T12:38:51.688Z,3.51
2017-12-30T12:39:51.603Z,3.50
2017-12-30T12:40:51.519Z,3.48
2017-12-30T12:41:51.433Z,3.50
2017-12-30T12:42:51.347Z,3.60
2017-12-30T12:43:51.264Z,3.63
2017-12-30T12:44:51.178Z,3.63
2017-12-30T12:45:51.093Z,3.47
2017-12-30T12:46:51.010Z,3.56
2017-12-30T12:47:50.927Z,3.53
2017-12-30T12:48:50.839Z,3.47
2017-12-30T12:49:50.758Z,3.55
2017-12-30T12:50:50.672Z,3.55
2017-12-30T12:51:50.585Z,3.48
2017-12-30T12:52:50.500Z,3.51
2017-12-30T12:53:50.415Z,3.55
2017-12-30T12:54:50.331Z,3.51
2017-12-30T12:55:50.262Z,3.51
2017-12-30T12:56:50.161Z,3.48
2017-12-30T12:57:50.077Z,3.50
2017-12-30T12:58:49.992Z,3.55
2017-12-30T12:59:49.919Z,3.55
2017-12-30T13:00:49.823Z,3.50
2017-12-30T13:01:49.740Z,3.48
2017-12-30T13:02:49.654Z,3.55
2017-12-30T13:03:49.569Z,3.42
2017-12-30T13:04:49.491Z,3.45
2017-12-30T13:05:49.401Z,3.44
2017-12-30T13:06:49.314Z,3.41
2017-12-30T13:07:49.234Z,3.41
2017-12-30T13:08:49.144Z,3.45
2017-12-30T13:09:49.057Z,3.45
2017-12-30T13:10:48.988Z,3.45
2017-12-30T13:11:48.902Z,3.32
2017-12-30T13:12:48.805Z,3.36
2017-12-30T13:13:48.720Z,3.26
2017-12-30T13:14:48.636Z,3.34
2017-12-30T13:15:48.564Z,3.34
2017-12-30T13:16:48.465Z,3.32
2017-12-30T13:17:48.380Z,3.37
2017-12-30T13:18:48.296Z,3.40
2017-12-30T13:19:48.211Z,3.26
2017-12-30T13:20:48.129Z,3.31
2017-12-30T13:21:48.053Z,3.32
2017-12-30T13:22:47.957Z,3.37
2017-12-30T13:23:47.872Z,3.37
2017-12-30T13:24:47.788Z,3.34